sensor_id;sensor_type;location;lat;lon;timestamp;P1;durP1;ratioP1;P2;durP2;ratioP2
49392;SDS011;35268;42.642;23.308;2023-05-29T00:01:25;5.47;;;3.28;;
49392;SDS011;35268;42.642;23.308;2023-05-29T00:03:51;11.55;;;3.15;;
49392;SDS011;35268;42.642;23.308;2023-05-29T00:06:17;6.00;;;3.58;;
49392;SDS011;35268;42.642;23.308;2023-05-29T00:08:44;5.93;;;3.50;;
49392;SDS011;35268;42.642;23.308;2023-05-29T00:11:09;8.10;;;3.20;;
49392;SDS011;35268;42.642;23.308;2023-05-29T00:13:35;14.15;;;3.38;;
49392;SDS011;35268;42.642;23.308;2023-05-29T00:16:00;5.95;;;3.40;;
49392;SDS011;35268;42.642;23.308;2023-05-29T00:18:28;7.55;;;3.53;;
49392;SDS011;35268;42.642;23.308;2023-05-29T00:20:54;12.10;;;3.72;;
49392;SDS011;35268;42.642;23.308;2023-05-29T00:23:20;5.70;;;3.53;;
49392;SDS011;35268;42.642;23.308;2023-05-29T00:25:46;6.15;;;3.55;;
49392;SDS011;35268;42.642;23.308;2023-05-29T00:28:12;9.57;;;3.58;;
49392;SDS011;35268;42.642;23.308;2023-05-29T00:30:37;9.60;;;3.60;;
49392;SDS011;35268;42.642;23.308;2023-05-29T00:33:03;13.55;;;4.45;;
49392;SDS011;35268;42.642;23.308;2023-05-29T00:35:29;8.60;;;3.40;;
49392;SDS011;35268;42.642;23.308;2023-05-29T00:37:54;6.28;;;3.72;;
49392;SDS011;35268;42.642;23.308;2023-05-29T00:40:20;7.85;;;3.60;;
49392;SDS011;35268;42.642;23.308;2023-05-29T00:42:45;9.05;;;3.95;;
49392;SDS011;35268;42.642;23.308;2023-05-29T00:45:11;11.18;;;3.40;;
49392;SDS011;35268;42.642;23.308;2023-05-29T00:47:38;11.30;;;3.13;;
49392;SDS011;35268;42.642;23.308;2023-05-29T00:50:05;7.80;;;4.22;;
49392;SDS011;35268;42.642;23.308;2023-05-29T00:52:31;7.63;;;3.53;;
49392;SDS011;35268;42.642;23.308;2023-05-29T00:54:57;7.32;;;3.63;;
49392;SDS011;35268;42.642;23.308;2023-05-29T00:57:26;7.30;;;3.97;;
49392;SDS011;35268;42.642;23.308;2023-05-29T00:59:51;10.70;;;4.38;;
49392;SDS011;35268;42.642;23.308;2023-05-29T01:02:17;8.85;;;5.05;;
49392;SDS011;35268;42.642;23.308;2023-05-29T01:04:45;12.77;;;4.43;;
49392;SDS011;35268;42.642;23.308;2023-05-29T01:07:11;10.45;;;4.55;;
49392;SDS011;35268;42.642;23.308;2023-05-29T01:09:37;9.45;;;4.40;;
49392;SDS011;35268;42.642;23.308;2023-05-29T01:20:16;12.82;;;5.75;;
49392;SDS011;35268;42.642;23.308;2023-05-29T01:27:53;13.75;;;5.00;;
49392;SDS011;35268;42.642;23.308;2023-05-29T01:30:20;6.40;;;4.00;;
49392;SDS011;35268;42.642;23.308;2023-05-29T01:32:49;9.38;;;4.47;;
49392;SDS011;35268;42.642;23.308;2023-05-29T01:35:15;8.90;;;5.03;;
49392;SDS011;35268;42.642;23.308;2023-05-29T01:37:40;8.95;;;4.40;;
49392;SDS011;35268;42.642;23.308;2023-05-29T01:40:06;7.68;;;4.03;;
49392;SDS011;35268;42.642;23.308;2023-05-29T01:42:32;7.63;;;4.35;;
49392;SDS011;35268;42.642;23.308;2023-05-29T01:44:58;7.35;;;4.32;;
49392;SDS011;35268;42.642;23.308;2023-05-29T01:47:24;6.30;;;4.18;;
49392;SDS011;35268;42.642;23.308;2023-05-29T01:49:51;10.57;;;4.20;;
49392;SDS011;35268;42.642;23.308;2023-05-29T01:52:17;9.77;;;3.80;;
49392;SDS011;35268;42.642;23.308;2023-05-29T01:54:43;13.93;;;5.15;;
49392;SDS011;35268;42.642;23.308;2023-05-29T01:57:09;8.15;;;4.18;;
49392;SDS011;35268;42.642;23.308;2023-05-29T01:59:35;8.10;;;4.93;;
49392;SDS011;35268;42.642;23.308;2023-05-29T02:02:08;10.65;;;4.47;;
49392;SDS011;35268;42.642;23.308;2023-05-29T02:04:35;11.48;;;4.65;;
49392;SDS011;35268;42.642;23.308;2023-05-29T02:07:00;6.18;;;4.28;;
49392;SDS011;35268;42.642;23.308;2023-05-29T02:09:26;8.23;;;4.97;;
49392;SDS011;35268;42.642;23.308;2023-05-29T02:11:52;6.57;;;4.30;;
49392;SDS011;35268;42.642;23.308;2023-05-29T02:14:17;8.63;;;4.85;;
49392;SDS011;35268;42.642;23.308;2023-05-29T02:16:43;13.10;;;4.68;;
49392;SDS011;35268;42.642;23.308;2023-05-29T02:19:13;9.60;;;4.93;;
49392;SDS011;35268;42.642;23.308;2023-05-29T02:21:39;19.08;;;4.28;;
49392;SDS011;35268;42.642;23.308;2023-05-29T02:24:08;7.60;;;5.07;;
49392;SDS011;35268;42.642;23.308;2023-05-29T02:26:33;9.70;;;4.63;;
49392;SDS011;35268;42.642;23.308;2023-05-29T02:29:01;7.50;;;4.65;;
49392;SDS011;35268;42.642;23.308;2023-05-29T02:31:30;10.60;;;4.68;;
49392;SDS011;35268;42.642;23.308;2023-05-29T02:33:56;12.20;;;5.30;;
49392;SDS011;35268;42.642;23.308;2023-05-29T02:36:21;8.07;;;4.20;;
49392;SDS011;35268;42.642;23.308;2023-05-29T02:38:47;7.18;;;4.55;;
49392;SDS011;35268;42.642;23.308;2023-05-29T02:41:12;6.18;;;4.28;;
49392;SDS011;35268;42.642;23.308;2023-05-29T02:43:38;14.65;;;4.93;;
49392;SDS011;35268;42.642;23.308;2023-05-29T02:46:03;11.00;;;5.10;;
49392;SDS011;35268;42.642;23.308;2023-05-29T02:48:29;9.95;;;4.28;;
49392;SDS011;35268;42.642;23.308;2023-05-29T02:50:54;8.60;;;4.00;;
49392;SDS011;35268;42.642;23.308;2023-05-29T02:53:20;8.32;;;4.35;;
49392;SDS011;35268;42.642;23.308;2023-05-29T02:55:45;7.28;;;4.60;;
49392;SDS011;35268;42.642;23.308;2023-05-29T02:58:11;9.05;;;5.22;;
49392;SDS011;35268;42.642;23.308;2023-05-29T03:00:37;8.63;;;4.80;;
49392;SDS011;35268;42.642;23.308;2023-05-29T03:03:03;7.50;;;4.40;;
49392;SDS011;35268;42.642;23.308;2023-05-29T03:05:29;7.75;;;4.68;;
49392;SDS011;35268;42.642;23.308;2023-05-29T03:07:55;8.60;;;5.30;;
49392;SDS011;35268;42.642;23.308;2023-05-29T03:10:21;11.88;;;4.30;;
49392;SDS011;35268;42.642;23.308;2023-05-29T03:12:47;10.10;;;5.20;;
49392;SDS011;35268;42.642;23.308;2023-05-29T03:15:12;16.90;;;5.18;;
49392;SDS011;35268;42.642;23.308;2023-05-29T03:17:38;10.77;;;5.15;;
49392;SDS011;35268;42.642;23.308;2023-05-29T03:20:03;7.68;;;4.70;;
49392;SDS011;35268;42.642;23.308;2023-05-29T03:22:33;17.52;;;6.22;;
49392;SDS011;35268;42.642;23.308;2023-05-29T03:25:00;8.18;;;4.93;;
49392;SDS011;35268;42.642;23.308;2023-05-29T03:27:26;8.23;;;5.00;;
49392;SDS011;35268;42.642;23.308;2023-05-29T03:29:52;10.07;;;4.57;;
49392;SDS011;35268;42.642;23.308;2023-05-29T03:32:18;11.40;;;4.93;;
49392;SDS011;35268;42.642;23.308;2023-05-29T03:34:43;10.23;;;5.15;;
49392;SDS011;35268;42.642;23.308;2023-05-29T03:37:09;7.95;;;4.57;;
49392;SDS011;35268;42.642;23.308;2023-05-29T03:39:35;11.13;;;4.75;;
49392;SDS011;35268;42.642;23.308;2023-05-29T03:42:00;7.68;;;4.07;;
49392;SDS011;35268;42.642;23.308;2023-05-29T03:44:27;9.98;;;4.57;;
49392;SDS011;35268;42.642;23.308;2023-05-29T03:46:53;17.77;;;4.57;;
49392;SDS011;35268;42.642;23.308;2023-05-29T03:49:18;12.18;;;4.50;;
49392;SDS011;35268;42.642;23.308;2023-05-29T03:51:44;9.35;;;5.10;;
49392;SDS011;35268;42.642;23.308;2023-05-29T03:54:10;13.05;;;5.15;;
49392;SDS011;35268;42.642;23.308;2023-05-29T03:56:35;11.77;;;4.03;;
49392;SDS011;35268;42.642;23.308;2023-05-29T03:59:01;15.93;;;5.32;;
49392;SDS011;35268;42.642;23.308;2023-05-29T04:01:26;10.07;;;5.65;;
49392;SDS011;35268;42.642;23.308;2023-05-29T04:03:52;16.60;;;4.97;;
49392;SDS011;35268;42.642;23.308;2023-05-29T04:06:18;12.07;;;4.72;;
49392;SDS011;35268;42.642;23.308;2023-05-29T04:08:43;17.95;;;5.57;;
49392;SDS011;35268;42.642;23.308;2023-05-29T04:11:08;26.80;;;5.63;;
49392;SDS011;35268;42.642;23.308;2023-05-29T04:13:34;21.75;;;5.75;;
49392;SDS011;35268;42.642;23.308;2023-05-29T04:16:00;9.95;;;5.00;;
49392;SDS011;35268;42.642;23.308;2023-05-29T04:18:25;18.13;;;5.78;;
49392;SDS011;35268;42.642;23.308;2023-05-29T04:20:51;18.77;;;5.22;;
49392;SDS011;35268;42.642;23.308;2023-05-29T04:23:16;14.77;;;4.90;;
49392;SDS011;35268;42.642;23.308;2023-05-29T04:25:42;17.20;;;5.10;;
49392;SDS011;35268;42.642;23.308;2023-05-29T04:28:08;15.75;;;5.28;;
49392;SDS011;35268;42.642;23.308;2023-05-29T04:30:35;8.48;;;4.63;;
49392;SDS011;35268;42.642;23.308;2023-05-29T04:33:01;8.48;;;4.63;;
49392;SDS011;35268;42.642;23.308;2023-05-29T04:35:28;6.68;;;4.18;;
49392;SDS011;35268;42.642;23.308;2023-05-29T04:37:53;14.07;;;5.35;;
49392;SDS011;35268;42.642;23.308;2023-05-29T04:40:21;16.88;;;5.47;;
49392;SDS011;35268;42.642;23.308;2023-05-29T04:42:47;16.40;;;6.00;;
49392;SDS011;35268;42.642;23.308;2023-05-29T04:45:12;16.20;;;6.13;;
49392;SDS011;35268;42.642;23.308;2023-05-29T04:47:38;13.93;;;5.22;;
49392;SDS011;35268;42.642;23.308;2023-05-29T04:50:09;18.30;;;5.65;;
49392;SDS011;35268;42.642;23.308;2023-05-29T04:52:36;17.05;;;6.15;;
49392;SDS011;35268;42.642;23.308;2023-05-29T04:55:02;24.88;;;4.95;;
49392;SDS011;35268;42.642;23.308;2023-05-29T04:57:28;12.57;;;4.47;;
49392;SDS011;35268;42.642;23.308;2023-05-29T04:59:53;9.88;;;4.72;;
49392;SDS011;35268;42.642;23.308;2023-05-29T05:02:19;12.13;;;4.57;;
49392;SDS011;35268;42.642;23.308;2023-05-29T05:04:44;11.27;;;4.55;;
49392;SDS011;35268;42.642;23.308;2023-05-29T05:07:11;28.55;;;5.15;;
49392;SDS011;35268;42.642;23.308;2023-05-29T05:09:37;16.67;;;4.93;;
49392;SDS011;35268;42.642;23.308;2023-05-29T05:12:02;26.88;;;6.25;;
49392;SDS011;35268;42.642;23.308;2023-05-29T05:14:28;13.18;;;5.85;;
49392;SDS011;35268;42.642;23.308;2023-05-29T05:16:53;15.73;;;6.97;;
49392;SDS011;35268;42.642;23.308;2023-05-29T05:19:19;23.10;;;6.68;;
49392;SDS011;35268;42.642;23.308;2023-05-29T05:21:45;18.38;;;5.78;;
49392;SDS011;35268;42.642;23.308;2023-05-29T05:24:11;31.65;;;6.65;;
49392;SDS011;35268;42.642;23.308;2023-05-29T05:26:37;18.23;;;7.07;;
49392;SDS011;35268;42.642;23.308;2023-05-29T05:29:02;19.33;;;7.03;;
49392;SDS011;35268;42.642;23.308;2023-05-29T05:31:27;16.08;;;5.45;;
49392;SDS011;35268;42.642;23.308;2023-05-29T05:33:53;11.57;;;5.93;;
49392;SDS011;35268;42.642;23.308;2023-05-29T05:36:18;12.27;;;4.85;;
49392;SDS011;35268;42.642;23.308;2023-05-29T05:38:44;17.20;;;4.80;;
49392;SDS011;35268;42.642;23.308;2023-05-29T05:41:10;20.25;;;6.40;;
49392;SDS011;35268;42.642;23.308;2023-05-29T05:43:36;15.95;;;5.57;;
49392;SDS011;35268;42.642;23.308;2023-05-29T05:46:02;11.20;;;5.20;;
49392;SDS011;35268;42.642;23.308;2023-05-29T05:48:27;20.58;;;5.40;;
49392;SDS011;35268;42.642;23.308;2023-05-29T05:50:52;12.48;;;5.40;;
49392;SDS011;35268;42.642;23.308;2023-05-29T05:53:18;9.80;;;4.65;;
49392;SDS011;35268;42.642;23.308;2023-05-29T05:55:43;13.07;;;5.03;;
49392;SDS011;35268;42.642;23.308;2023-05-29T05:58:09;15.65;;;5.63;;
49392;SDS011;35268;42.642;23.308;2023-05-29T06:00:34;14.77;;;4.03;;
49392;SDS011;35268;42.642;23.308;2023-05-29T06:03:00;9.95;;;4.43;;
49392;SDS011;35268;42.642;23.308;2023-05-29T06:05:28;11.32;;;3.90;;
49392;SDS011;35268;42.642;23.308;2023-05-29T06:07:53;9.75;;;4.40;;
49392;SDS011;35268;42.642;23.308;2023-05-29T06:10:19;12.05;;;4.18;;
49392;SDS011;35268;42.642;23.308;2023-05-29T06:12:44;8.63;;;4.15;;
49392;SDS011;35268;42.642;23.308;2023-05-29T06:15:10;16.88;;;5.07;;
49392;SDS011;35268;42.642;23.308;2023-05-29T06:17:36;10.88;;;3.70;;
49392;SDS011;35268;42.642;23.308;2023-05-29T06:20:01;8.98;;;3.83;;
49392;SDS011;35268;42.642;23.308;2023-05-29T06:22:36;9.75;;;4.18;;
49392;SDS011;35268;42.642;23.308;2023-05-29T06:25:02;10.25;;;4.63;;
49392;SDS011;35268;42.642;23.308;2023-05-29T06:27:27;17.08;;;4.32;;
49392;SDS011;35268;42.642;23.308;2023-05-29T06:29:53;12.40;;;4.88;;
49392;SDS011;35268;42.642;23.308;2023-05-29T06:32:18;14.32;;;4.75;;
49392;SDS011;35268;42.642;23.308;2023-05-29T06:34:44;13.75;;;3.70;;
49392;SDS011;35268;42.642;23.308;2023-05-29T06:37:09;7.68;;;4.18;;
49392;SDS011;35268;42.642;23.308;2023-05-29T06:39:35;12.02;;;3.90;;
49392;SDS011;35268;42.642;23.308;2023-05-29T06:42:00;9.13;;;3.55;;
49392;SDS011;35268;42.642;23.308;2023-05-29T06:44:26;9.20;;;3.85;;
49392;SDS011;35268;42.642;23.308;2023-05-29T06:46:52;6.97;;;3.08;;
49392;SDS011;35268;42.642;23.308;2023-05-29T06:49:17;6.95;;;3.13;;
49392;SDS011;35268;42.642;23.308;2023-05-29T06:51:43;9.63;;;3.80;;
49392;SDS011;35268;42.642;23.308;2023-05-29T06:54:09;9.50;;;3.50;;
49392;SDS011;35268;42.642;23.308;2023-05-29T06:56:35;12.40;;;3.08;;
49392;SDS011;35268;42.642;23.308;2023-05-29T06:59:00;8.65;;;3.20;;
49392;SDS011;35268;42.642;23.308;2023-05-29T07:01:26;6.93;;;2.58;;
49392;SDS011;35268;42.642;23.308;2023-05-29T07:03:51;7.55;;;2.55;;
49392;SDS011;35268;42.642;23.308;2023-05-29T07:06:18;6.20;;;2.15;;
49392;SDS011;35268;42.642;23.308;2023-05-29T07:08:43;5.80;;;2.25;;
49392;SDS011;35268;42.642;23.308;2023-05-29T07:11:09;3.42;;;2.08;;
49392;SDS011;35268;42.642;23.308;2023-05-29T07:13:34;3.90;;;2.10;;
49392;SDS011;35268;42.642;23.308;2023-05-29T07:16:00;4.38;;;2.10;;
49392;SDS011;35268;42.642;23.308;2023-05-29T07:18:26;4.95;;;1.85;;
49392;SDS011;35268;42.642;23.308;2023-05-29T07:20:51;5.95;;;2.22;;
49392;SDS011;35268;42.642;23.308;2023-05-29T07:23:16;5.15;;;1.80;;
49392;SDS011;35268;42.642;23.308;2023-05-29T07:25:42;10.85;;;2.30;;
49392;SDS011;35268;42.642;23.308;2023-05-29T07:28:08;8.40;;;2.83;;
49392;SDS011;35268;42.642;23.308;2023-05-29T07:30:34;5.00;;;2.47;;
49392;SDS011;35268;42.642;23.308;2023-05-29T07:32:59;8.90;;;3.22;;
49392;SDS011;35268;42.642;23.308;2023-05-29T07:35:25;11.90;;;2.88;;
49392;SDS011;35268;42.642;23.308;2023-05-29T07:37:50;6.85;;;2.85;;
49392;SDS011;35268;42.642;23.308;2023-05-29T07:40:17;3.85;;;2.45;;
49392;SDS011;35268;42.642;23.308;2023-05-29T07:42:42;7.60;;;3.13;;
49392;SDS011;35268;42.642;23.308;2023-05-29T07:45:08;8.45;;;3.20;;
49392;SDS011;35268;42.642;23.308;2023-05-29T07:47:33;5.72;;;2.83;;
49392;SDS011;35268;42.642;23.308;2023-05-29T07:49:59;8.85;;;3.53;;
49392;SDS011;35268;42.642;23.308;2023-05-29T07:52:24;9.60;;;3.05;;
49392;SDS011;35268;42.642;23.308;2023-05-29T07:54:50;8.27;;;3.28;;
49392;SDS011;35268;42.642;23.308;2023-05-29T07:57:15;8.30;;;2.72;;
49392;SDS011;35268;42.642;23.308;2023-05-29T07:59:41;8.20;;;2.60;;
49392;SDS011;35268;42.642;23.308;2023-05-29T08:02:07;7.68;;;3.25;;
49392;SDS011;35268;42.642;23.308;2023-05-29T08:04:32;6.05;;;3.05;;
49392;SDS011;35268;42.642;23.308;2023-05-29T08:07:01;10.07;;;3.00;;
49392;SDS011;35268;42.642;23.308;2023-05-29T08:09:28;7.45;;;2.58;;
49392;SDS011;35268;42.642;23.308;2023-05-29T08:11:54;6.45;;;3.00;;
49392;SDS011;35268;42.642;23.308;2023-05-29T08:14:19;6.95;;;2.80;;
49392;SDS011;35268;42.642;23.308;2023-05-29T08:16:45;9.57;;;2.80;;
49392;SDS011;35268;42.642;23.308;2023-05-29T08:19:10;8.15;;;3.72;;
49392;SDS011;35268;42.642;23.308;2023-05-29T08:21:39;10.23;;;3.75;;
49392;SDS011;35268;42.642;23.308;2023-05-29T08:24:04;21.90;;;3.60;;
49392;SDS011;35268;42.642;23.308;2023-05-29T08:26:30;9.57;;;2.88;;
49392;SDS011;35268;42.642;23.308;2023-05-29T08:28:56;8.20;;;2.42;;
49392;SDS011;35268;42.642;23.308;2023-05-29T08:31:22;8.52;;;2.92;;
49392;SDS011;35268;42.642;23.308;2023-05-29T08:33:50;12.02;;;3.05;;
49392;SDS011;35268;42.642;23.308;2023-05-29T08:36:15;5.68;;;2.67;;
49392;SDS011;35268;42.642;23.308;2023-05-29T08:38:47;5.95;;;2.28;;
49392;SDS011;35268;42.642;23.308;2023-05-29T08:44:12;4.82;;;2.35;;
49392;SDS011;35268;42.642;23.308;2023-05-29T08:46:40;8.30;;;2.70;;
49392;SDS011;35268;42.642;23.308;2023-05-29T08:49:05;8.05;;;3.28;;
49392;SDS011;35268;42.642;23.308;2023-05-29T08:51:35;10.70;;;2.70;;
49392;SDS011;35268;42.642;23.308;2023-05-29T08:54:03;5.28;;;2.58;;
49392;SDS011;35268;42.642;23.308;2023-05-29T08:56:29;6.57;;;2.38;;
49392;SDS011;35268;42.642;23.308;2023-05-29T08:58:54;5.60;;;2.92;;
49392;SDS011;35268;42.642;23.308;2023-05-29T09:01:21;7.85;;;2.95;;
49392;SDS011;35268;42.642;23.308;2023-05-29T09:03:47;9.68;;;2.50;;
49392;SDS011;35268;42.642;23.308;2023-05-29T09:06:13;7.93;;;2.85;;
49392;SDS011;35268;42.642;23.308;2023-05-29T09:08:39;4.55;;;2.30;;
49392;SDS011;35268;42.642;23.308;2023-05-29T09:11:04;9.63;;;2.58;;
49392;SDS011;35268;42.642;23.308;2023-05-29T09:13:30;4.72;;;2.70;;
49392;SDS011;35268;42.642;23.308;2023-05-29T09:15:59;6.38;;;2.40;;
49392;SDS011;35268;42.642;23.308;2023-05-29T09:18:28;7.77;;;2.87;;
49392;SDS011;35268;42.642;23.308;2023-05-29T09:20:54;5.60;;;2.88;;
49392;SDS011;35268;42.642;23.308;2023-05-29T09:23:20;4.80;;;2.33;;
49392;SDS011;35268;42.642;23.308;2023-05-29T09:25:46;4.55;;;2.45;;
49392;SDS011;35268;42.642;23.308;2023-05-29T09:28:17;6.00;;;2.13;;
49392;SDS011;35268;42.642;23.308;2023-05-29T09:30:44;7.22;;;2.30;;
49392;SDS011;35268;42.642;23.308;2023-05-29T09:33:12;4.90;;;2.25;;
49392;SDS011;35268;42.642;23.308;2023-05-29T09:35:43;4.30;;;2.50;;
49392;SDS011;35268;42.642;23.308;2023-05-29T09:38:12;11.05;;;3.58;;
49392;SDS011;35268;42.642;23.308;2023-05-29T09:40:38;4.57;;;2.40;;
49392;SDS011;35268;42.642;23.308;2023-05-29T09:43:15;5.38;;;2.45;;
49392;SDS011;35268;42.642;23.308;2023-05-29T09:45:48;7.30;;;2.80;;
49392;SDS011;35268;42.642;23.308;2023-05-29T09:48:15;4.78;;;2.40;;
49392;SDS011;35268;42.642;23.308;2023-05-29T09:50:42;5.18;;;2.83;;
49392;SDS011;35268;42.642;23.308;2023-05-29T09:53:23;4.82;;;2.88;;
49392;SDS011;35268;42.642;23.308;2023-05-29T09:55:54;11.65;;;2.42;;
49392;SDS011;35268;42.642;23.308;2023-05-29T09:58:21;8.82;;;2.97;;
49392;SDS011;35268;42.642;23.308;2023-05-29T10:00:48;6.75;;;2.88;;
49392;SDS011;35268;42.642;23.308;2023-05-29T10:03:14;11.00;;;3.08;;
49392;SDS011;35268;42.642;23.308;2023-05-29T10:05:42;5.55;;;2.97;;
49392;SDS011;35268;42.642;23.308;2023-05-29T10:08:10;12.30;;;3.35;;
49392;SDS011;35268;42.642;23.308;2023-05-29T10:10:39;10.27;;;2.80;;
49392;SDS011;35268;42.642;23.308;2023-05-29T10:13:07;13.38;;;4.50;;
49392;SDS011;35268;42.642;23.308;2023-05-29T10:15:37;16.35;;;3.47;;
49392;SDS011;35268;42.642;23.308;2023-05-29T10:21:07;9.02;;;2.75;;
49392;SDS011;35268;42.642;23.308;2023-05-29T10:23:36;4.68;;;2.55;;
49392;SDS011;35268;42.642;23.308;2023-05-29T10:26:06;10.50;;;2.38;;
49392;SDS011;35268;42.642;23.308;2023-05-29T10:28:37;8.98;;;2.38;;
49392;SDS011;35268;42.642;23.308;2023-05-29T10:31:09;6.03;;;2.38;;
49392;SDS011;35268;42.642;23.308;2023-05-29T10:34:00;7.47;;;2.63;;
49392;SDS011;35268;42.642;23.308;2023-05-29T10:36:44;5.13;;;2.95;;
49392;SDS011;35268;42.642;23.308;2023-05-29T10:39:15;4.47;;;2.72;;
49392;SDS011;35268;42.642;23.308;2023-05-29T10:41:40;10.77;;;3.03;;
49392;SDS011;35268;42.642;23.308;2023-05-29T10:49:25;6.18;;;2.42;;
49392;SDS011;35268;42.642;23.308;2023-05-29T10:51:50;8.52;;;3.00;;
49392;SDS011;35268;42.642;23.308;2023-05-29T10:54:17;8.35;;;2.55;;
49392;SDS011;35268;42.642;23.308;2023-05-29T10:57:00;7.97;;;3.03;;
49392;SDS011;35268;42.642;23.308;2023-05-29T10:59:26;13.80;;;2.90;;
49392;SDS011;35268;42.642;23.308;2023-05-29T11:01:53;6.28;;;3.83;;
49392;SDS011;35268;42.642;23.308;2023-05-29T11:06:45;11.85;;;3.20;;
49392;SDS011;35268;42.642;23.308;2023-05-29T11:14:54;18.17;;;4.45;;
49392;SDS011;35268;42.642;23.308;2023-05-29T11:20:03;9.32;;;4.10;;
49392;SDS011;35268;42.642;23.308;2023-05-29T11:25:14;7.80;;;4.32;;
49392;SDS011;35268;42.642;23.308;2023-05-29T11:27:40;6.88;;;3.30;;
49392;SDS011;35268;42.642;23.308;2023-05-29T11:30:07;7.20;;;3.28;;
49392;SDS011;35268;42.642;23.308;2023-05-29T11:32:33;6.72;;;2.92;;
49392;SDS011;35268;42.642;23.308;2023-05-29T11:35:00;6.75;;;3.58;;
49392;SDS011;35268;42.642;23.308;2023-05-29T11:37:32;7.32;;;2.83;;
49392;SDS011;35268;42.642;23.308;2023-05-29T11:39:58;7.00;;;2.25;;
49392;SDS011;35268;42.642;23.308;2023-05-29T11:42:23;4.60;;;2.55;;
49392;SDS011;35268;42.642;23.308;2023-05-29T11:44:49;4.70;;;2.67;;
49392;SDS011;35268;42.642;23.308;2023-05-29T11:47:14;11.50;;;2.65;;
49392;SDS011;35268;42.642;23.308;2023-05-29T11:49:40;4.63;;;2.72;;
49392;SDS011;35268;42.642;23.308;2023-05-29T11:52:06;6.10;;;3.72;;
49392;SDS011;35268;42.642;23.308;2023-05-29T11:54:42;4.72;;;2.67;;
49392;SDS011;35268;42.642;23.308;2023-05-29T11:57:20;5.82;;;2.72;;
49392;SDS011;35268;42.642;23.308;2023-05-29T11:59:46;4.88;;;2.50;;
49392;SDS011;35268;42.642;23.308;2023-05-29T12:02:13;6.45;;;2.50;;
49392;SDS011;35268;42.642;23.308;2023-05-29T12:04:39;13.57;;;3.42;;
49392;SDS011;35268;42.642;23.308;2023-05-29T12:07:17;13.57;;;3.90;;
49392;SDS011;35268;42.642;23.308;2023-05-29T12:09:43;14.25;;;3.67;;
49392;SDS011;35268;42.642;23.308;2023-05-29T12:12:08;14.77;;;3.85;;
49392;SDS011;35268;42.642;23.308;2023-05-29T12:14:34;8.10;;;3.70;;
49392;SDS011;35268;42.642;23.308;2023-05-29T12:16:59;5.45;;;3.22;;
49392;SDS011;35268;42.642;23.308;2023-05-29T12:19:25;3.80;;;2.25;;
49392;SDS011;35268;42.642;23.308;2023-05-29T12:21:51;3.55;;;2.25;;
49392;SDS011;35268;42.642;23.308;2023-05-29T12:24:18;7.15;;;2.60;;
49392;SDS011;35268;42.642;23.308;2023-05-29T12:26:44;6.57;;;2.72;;
49392;SDS011;35268;42.642;23.308;2023-05-29T12:29:09;13.10;;;3.50;;
49392;SDS011;35268;42.642;23.308;2023-05-29T12:31:35;7.60;;;3.40;;
49392;SDS011;35268;42.642;23.308;2023-05-29T12:34:10;7.72;;;3.83;;
49392;SDS011;35268;42.642;23.308;2023-05-29T12:36:41;7.07;;;3.55;;
49392;SDS011;35268;42.642;23.308;2023-05-29T12:39:07;12.35;;;3.70;;
49392;SDS011;35268;42.642;23.308;2023-05-29T12:41:35;9.25;;;3.83;;
49392;SDS011;35268;42.642;23.308;2023-05-29T12:44:03;13.55;;;4.30;;
49392;SDS011;35268;42.642;23.308;2023-05-29T12:46:40;6.93;;;4.15;;
49392;SDS011;35268;42.642;23.308;2023-05-29T12:49:14;10.95;;;4.63;;
49392;SDS011;35268;42.642;23.308;2023-05-29T12:51:41;9.95;;;4.30;;
49392;SDS011;35268;42.642;23.308;2023-05-29T12:54:11;7.50;;;3.30;;
49392;SDS011;35268;42.642;23.308;2023-05-29T12:56:38;8.73;;;3.78;;
49392;SDS011;35268;42.642;23.308;2023-05-29T12:59:05;6.43;;;2.90;;
49392;SDS011;35268;42.642;23.308;2023-05-29T13:01:34;5.38;;;3.03;;
49392;SDS011;35268;42.642;23.308;2023-05-29T13:04:02;14.30;;;3.47;;
49392;SDS011;35268;42.642;23.308;2023-05-29T13:06:28;8.90;;;3.30;;
49392;SDS011;35268;42.642;23.308;2023-05-29T13:08:54;16.55;;;4.55;;
49392;SDS011;35268;42.642;23.308;2023-05-29T13:11:19;13.20;;;3.47;;
49392;SDS011;35268;42.642;23.308;2023-05-29T13:13:45;8.43;;;3.10;;
49392;SDS011;35268;42.642;23.308;2023-05-29T13:16:11;7.70;;;2.75;;
49392;SDS011;35268;42.642;23.308;2023-05-29T13:18:37;9.60;;;2.85;;
49392;SDS011;35268;42.642;23.308;2023-05-29T13:21:02;10.50;;;3.15;;
49392;SDS011;35268;42.642;23.308;2023-05-29T13:23:28;10.35;;;3.83;;
49392;SDS011;35268;42.642;23.308;2023-05-29T13:25:53;7.47;;;4.03;;
49392;SDS011;35268;42.642;23.308;2023-05-29T13:28:18;9.20;;;3.50;;
49392;SDS011;35268;42.642;23.308;2023-05-29T13:30:44;6.50;;;3.78;;
49392;SDS011;35268;42.642;23.308;2023-05-29T13:33:09;5.85;;;3.17;;
49392;SDS011;35268;42.642;23.308;2023-05-29T13:35:35;7.68;;;4.00;;
49392;SDS011;35268;42.642;23.308;2023-05-29T13:38:01;6.93;;;3.22;;
49392;SDS011;35268;42.642;23.308;2023-05-29T13:40:26;7.82;;;3.45;;
49392;SDS011;35268;42.642;23.308;2023-05-29T13:42:51;9.27;;;3.58;;
49392;SDS011;35268;42.642;23.308;2023-05-29T13:45:17;7.57;;;3.50;;
49392;SDS011;35268;42.642;23.308;2023-05-29T13:47:42;8.73;;;3.78;;
49392;SDS011;35268;42.642;23.308;2023-05-29T13:50:08;8.55;;;3.25;;
49392;SDS011;35268;42.642;23.308;2023-05-29T13:52:33;14.93;;;4.78;;
49392;SDS011;35268;42.642;23.308;2023-05-29T13:54:59;10.35;;;4.25;;
49392;SDS011;35268;42.642;23.308;2023-05-29T13:57:29;10.50;;;3.75;;
49392;SDS011;35268;42.642;23.308;2023-05-29T13:59:56;10.07;;;3.95;;
49392;SDS011;35268;42.642;23.308;2023-05-29T14:02:21;14.75;;;5.72;;
49392;SDS011;35268;42.642;23.308;2023-05-29T14:04:47;13.93;;;4.05;;
49392;SDS011;35268;42.642;23.308;2023-05-29T14:07:13;8.63;;;3.83;;
49392;SDS011;35268;42.642;23.308;2023-05-29T14:09:38;9.65;;;3.70;;
49392;SDS011;35268;42.642;23.308;2023-05-29T14:12:04;6.95;;;4.03;;
49392;SDS011;35268;42.642;23.308;2023-05-29T14:14:30;13.73;;;5.13;;
49392;SDS011;35268;42.642;23.308;2023-05-29T14:16:57;11.38;;;4.45;;
49392;SDS011;35268;42.642;23.308;2023-05-29T14:19:22;5.53;;;3.15;;
49392;SDS011;35268;42.642;23.308;2023-05-29T14:21:48;7.05;;;3.15;;
49392;SDS011;35268;42.642;23.308;2023-05-29T14:24:14;4.47;;;3.10;;
49392;SDS011;35268;42.642;23.308;2023-05-29T14:26:40;4.70;;;3.05;;
49392;SDS011;35268;42.642;23.308;2023-05-29T14:29:08;5.28;;;2.30;;
49392;SDS011;35268;42.642;23.308;2023-05-29T14:31:33;4.20;;;2.25;;
49392;SDS011;35268;42.642;23.308;2023-05-29T14:34:01;6.05;;;2.17;;
49392;SDS011;35268;42.642;23.308;2023-05-29T14:36:27;6.95;;;2.38;;
49392;SDS011;35268;42.642;23.308;2023-05-29T14:38:52;4.38;;;2.38;;
49392;SDS011;35268;42.642;23.308;2023-05-29T14:41:18;4.32;;;2.05;;
49392;SDS011;35268;42.642;23.308;2023-05-29T14:43:43;4.82;;;2.05;;
49392;SDS011;35268;42.642;23.308;2023-05-29T14:46:09;2.60;;;1.60;;
49392;SDS011;35268;42.642;23.308;2023-05-29T14:48:35;5.60;;;1.98;;
49392;SDS011;35268;42.642;23.308;2023-05-29T14:51:00;11.73;;;3.42;;
49392;SDS011;35268;42.642;23.308;2023-05-29T14:53:26;3.80;;;1.77;;
49392;SDS011;35268;42.642;23.308;2023-05-29T14:55:52;3.35;;;1.55;;
49392;SDS011;35268;42.642;23.308;2023-05-29T14:58:17;9.18;;;1.92;;
49392;SDS011;35268;42.642;23.308;2023-05-29T15:00:43;3.80;;;1.55;;
49392;SDS011;35268;42.642;23.308;2023-05-29T15:03:08;3.60;;;1.52;;
49392;SDS011;35268;42.642;23.308;2023-05-29T15:05:34;4.22;;;1.55;;